Time;durP1;ratioP1;P1;durP2;ratioP2;P2;SDS_P1;SDS_P2;PMS_P1;PMS_P2;Temp;Humidity;BMP_temperature;BMP_pressure;BME280_temperature;BME280_humidity;BME280_pressure;Samples;Min_cycle;Max_cycle;Signal;HPM_P1;HPM_P2
2021/12/27 00:01:00;;;;;;;;;;;14.70;34.10;;;;;;5093536;28;19909;-62
2021/12/27 00:03:26;;;;;;;;;;;14.70;34.20;;;;;;5093214;28;20359;-62
2021/12/27 00:05:52;;;;;;;;;;;14.70;34.20;;;;;;5093707;28;20313;-61
2021/12/27 00:08:17;;;;;;;;;;;14.70;34.20;;;;;;5093349;28;19908;-62
2021/12/27 00:10:43;;;;;;;;;;;14.70;34.20;;;;;;5093400;28;19915;-62
2021/12/27 00:13:09;;;;;;;;;;;14.70;34.20;;;;;;5093630;28;19961;-62
2021/12/27 00:15:34;;;;;;;;;;;14.70;34.30;;;;;;5079157;28;20383;-62
2021/12/27 00:18:00;;;;;;;;;;;14.70;34.20;;;;;;5097650;28;19912;-62
2021/12/27 00:20:26;;;;;;;;;;;14.70;34.20;;;;;;5079196;28;19915;-62
2021/12/27 00:22:51;;;;;;;;;;;14.70;34.20;;;;;;5097164;28;19923;-61
2021/12/27 00:25:17;;;;;;;;;;;14.70;34.30;;;;;;5097513;28;19935;-62
2021/12/27 00:27:43;;;;;;;;;;;14.70;34.30;;;;;;5097123;28;19908;-62
2021/12/27 00:30:09;;;;;;;;;;;14.70;34.30;;;;;;5097096;28;20017;-61
2021/12/27 00:32:37;;;;;;;;;;;14.70;34.30;;;;;;5097065;28;19912;-62
2021/12/27 00:35:06;;;;;;;;;;;14.70;34.30;;;;;;5097106;28;20378;-62
2021/12/27 00:37:31;;;;;;;;;;;14.70;34.30;;;;;;5097274;28;19959;-62
2021/12/27 00:39:57;;;;;;;;;;;14.70;34.30;;;;;;5097064;28;19989;-62
2021/12/27 00:42:22;;;;;;;;;;;14.70;34.30;;;;;;5096841;28;20367;-62
2021/12/27 00:44:48;;;;;;;;;;;14.70;34.30;;;;;;5096789;28;19909;-62
2021/12/27 00:47:13;;;;;;;;;;;14.80;34.30;;;;;;5097094;28;19915;-62
2021/12/27 00:49:39;;;;;;;;;;;14.70;34.30;;;;;;5096803;28;19908;-62
2021/12/27 00:52:04;;;;;;;;;;;14.70;34.40;;;;;;5096883;28;19996;-62
2021/12/27 00:54:30;;;;;;;;;;;14.70;34.40;;;;;;5096730;28;20010;-62
2021/12/27 00:56:55;;;;;;;;;;;14.70;34.40;;;;;;5096457;28;20409;-62
2021/12/27 00:59:20;;;;;;;;;;;14.70;34.40;;;;;;5096655;28;19909;-62
2021/12/27 01:01:46;;;;;;;;;;;14.70;34.40;;;;;;5096776;28;20355;-62
2021/12/27 01:04:12;;;;;;;;;;;14.70;34.40;;;;;;5096729;28;20279;-62
2021/12/27 01:06:37;;;;;;;;;;;14.70;34.40;;;;;;5096636;28;20263;-62
2021/12/27 01:09:04;;;;;;;;;;;14.70;34.40;;;;;;5096407;28;19991;-61
2021/12/27 01:14:08;;;;;;;;;;;14.70;34.50;;;;;;5096580;28;19912;-62
2021/12/27 01:16:34;;;;;;;;;;;14.70;34.40;;;;;;5096494;28;19908;-62
2021/12/27 01:18:59;;;;;;;;;;;14.70;34.50;;;;;;5096153;28;19961;-62
2021/12/27 01:21:25;;;;;;;;;;;14.70;34.50;;;;;;5096338;28;20012;-62
2021/12/27 01:23:54;;;;;;;;;;;14.70;34.50;;;;;;5096302;28;19941;-62
2021/12/27 01:26:20;;;;;;;;;;;14.70;34.50;;;;;;5095482;28;20352;-62
2021/12/27 01:28:45;;;;;;;;;;;14.70;34.50;;;;;;5077997;28;19995;-62
2021/12/27 01:31:12;;;;;;;;;;;14.70;34.50;;;;;;5095750;28;20344;-61
2021/12/27 01:33:37;;;;;;;;;;;14.80;34.50;;;;;;5095764;28;19995;-62
2021/12/27 01:36:04;;;;;;;;;;;14.70;34.50;;;;;;5095716;28;19943;-62
2021/12/27 01:38:30;;;;;;;;;;;14.70;34.60;;;;;;5095575;28;20291;-61
2021/12/27 01:40:57;;;;;;;;;;;14.70;34.60;;;;;;5095524;28;19908;-61
2021/12/27 01:43:25;;;;;;;;;;;14.80;34.60;;;;;;5095682;28;19946;-62
2021/12/27 01:45:50;;;;;;;;;;;14.70;34.60;;;;;;5095524;28;20336;-61
2021/12/27 01:48:20;;;;;;;;;;;14.70;34.60;;;;;;5095608;28;19912;-62
2021/12/27 01:50:46;;;;;;;;;;;14.70;34.60;;;;;;5095715;28;19915;-61
2021/12/27 01:53:12;;;;;;;;;;;14.70;34.60;;;;;;5095358;28;19909;-62
2021/12/27 01:55:38;;;;;;;;;;;14.70;34.70;;;;;;5095479;28;19923;-61
2021/12/27 01:58:03;;;;;;;;;;;14.70;34.60;;;;;;5095092;28;19924;-61
2021/12/27 02:00:29;;;;;;;;;;;14.70;34.70;;;;;;5095241;28;20413;-61
2021/12/27 02:02:55;;;;;;;;;;;14.70;34.60;;;;;;5095150;28;19916;-62
2021/12/27 02:05:20;;;;;;;;;;;14.70;34.70;;;;;;5095208;28;19938;-62
2021/12/27 02:07:46;;;;;;;;;;;14.70;34.70;;;;;;5095176;28;19922;-62
2021/12/27 02:10:12;;;;;;;;;;;14.70;34.70;;;;;;5095033;28;19908;-62
2021/12/27 02:12:39;;;;;;;;;;;14.70;34.70;;;;;;5094989;28;20363;-64
2021/12/27 02:15:09;;;;;;;;;;;14.80;34.70;;;;;;5094984;28;20643;-61
2021/12/27 02:17:35;;;;;;;;;;;14.80;34.70;;;;;;5094991;28;19909;-61
2021/12/27 02:20:01;;;;;;;;;;;14.70;34.70;;;;;;5094879;28;19912;-62
2021/12/27 02:22:28;;;;;;;;;;;14.80;34.70;;;;;;5094713;28;19916;-62
2021/12/27 02:24:54;;;;;;;;;;;14.70;34.80;;;;;;5094762;28;19908;-61
2021/12/27 02:27:19;;;;;;;;;;;14.80;34.70;;;;;;5094934;28;19908;-61
2021/12/27 02:29:45;;;;;;;;;;;14.70;34.80;;;;;;5094676;28;20131;-62
2021/12/27 02:32:10;;;;;;;;;;;14.70;34.80;;;;;;5094564;28;19926;-62
2021/12/27 02:34:36;;;;;;;;;;;14.70;34.80;;;;;;5094554;28;19923;-62
2021/12/27 02:37:01;;;;;;;;;;;14.70;34.80;;;;;;5093819;28;19908;-62
2021/12/27 02:39:29;;;;;;;;;;;14.80;34.80;;;;;;5094446;28;19908;-62
2021/12/27 02:41:54;;;;;;;;;;;14.70;34.80;;;;;;5094550;28;20272;-61
2021/12/27 02:44:20;;;;;;;;;;;14.80;34.80;;;;;;5094633;28;19912;-62
2021/12/27 02:46:45;;;;;;;;;;;14.80;34.80;;;;;;5094379;28;19961;-62
2021/12/27 02:49:11;;;;;;;;;;;14.80;34.80;;;;;;5094753;28;19950;-62
2021/12/27 02:51:36;;;;;;;;;;;14.80;34.80;;;;;;5094370;28;20344;-62
2021/12/27 02:54:02;;;;;;;;;;;14.70;34.90;;;;;;5094297;28;19908;-62
2021/12/27 02:56:29;;;;;;;;;;;14.80;34.80;;;;;;5094081;28;20336;-60
2021/12/27 02:58:55;;;;;;;;;;;14.80;34.90;;;;;;5076075;28;20382;-62
2021/12/27 03:01:22;;;;;;;;;;;14.80;34.90;;;;;;5094209;28;20355;-61
2021/12/27 03:03:48;;;;;;;;;;;14.80;35.00;;;;;;5094465;28;19915;-61
2021/12/27 03:06:14;;;;;;;;;;;14.80;34.90;;;;;;5094370;28;19908;-61
2021/12/27 03:08:43;;;;;;;;;;;14.80;34.90;;;;;;5094033;28;19948;-62
2021/12/27 03:11:10;;;;;;;;;;;14.80;34.90;;;;;;5075827;28;19909;-62
2021/12/27 03:13:37;;;;;;;;;;;14.80;35.00;;;;;;5094268;28;19961;-62
2021/12/27 03:16:04;;;;;;;;;;;14.80;34.90;;;;;;5094117;28;19908;-62
2021/12/27 03:18:31;;;;;;;;;;;14.80;35.00;;;;;;5093980;28;19908;-61
2021/12/27 03:20:57;;;;;;;;;;;14.70;35.00;;;;;;5093979;28;19961;-61
2021/12/27 03:23:22;;;;;;;;;;;14.80;35.00;;;;;;5093724;28;19920;-61
2021/12/27 03:25:48;;;;;;;;;;;14.80;35.00;;;;;;5094030;28;20279;-62
2021/12/27 03:28:14;;;;;;;;;;;14.80;35.00;;;;;;5093893;28;19908;-61
2021/12/27 03:30:40;;;;;;;;;;;14.70;35.00;;;;;;5093727;28;19908;-61
2021/12/27 03:33:07;;;;;;;;;;;14.80;35.00;;;;;;5094087;28;19915;-61
2021/12/27 03:35:38;;;;;;;;;;;14.80;35.00;;;;;;5093761;28;20372;-61
2021/12/27 03:38:06;;;;;;;;;;;14.80;35.00;;;;;;5093748;28;19908;-61
2021/12/27 03:40:32;;;;;;;;;;;14.80;35.10;;;;;;5093923;28;19908;-61
2021/12/27 03:42:58;;;;;;;;;;;14.80;35.10;;;;;;5093580;28;19945;-61
2021/12/27 03:45:33;;;;;;;;;;;14.80;35.10;;;;;;5075539;28;19915;-61
2021/12/27 03:47:59;;;;;;;;;;;14.80;35.00;;;;;;5093565;28;19908;-61
2021/12/27 03:50:27;;;;;;;;;;;14.80;35.10;;;;;;5093826;28;19908;-61
2021/12/27 03:52:53;;;;;;;;;;;14.80;35.10;;;;;;5093745;28;19995;-62
2021/12/27 03:55:20;;;;;;;;;;;14.80;35.10;;;;;;5093763;28;20240;-61
2021/12/27 03:57:53;;;;;;;;;;;14.80;35.10;;;;;;5093376;28;19936;-61
2021/12/27 04:02:49;;;;;;;;;;;14.80;35.20;;;;;;5093341;28;19916;-61
2021/12/27 04:05:15;;;;;;;;;;;14.80;35.20;;;;;;5093738;28;19908;-61
2021/12/27 04:07:43;;;;;;;;;;;14.80;35.20;;;;;;5093598;28;20264;-61
2021/12/27 04:10:09;;;;;;;;;;;14.80;35.20;;;;;;5093705;28;19951;-61
2021/12/27 04:12:35;;;;;;;;;;;14.80;35.20;;;;;;5093718;28;19962;-61
2021/12/27 04:15:01;;;;;;;;;;;14.80;35.30;;;;;;5093395;28;19912;-61
2021/12/27 04:17:27;;;;;;;;;;;14.80;35.20;;;;;;5093208;28;20007;-61
2021/12/27 04:19:52;;;;;;;;;;;14.80;35.20;;;;;;5093627;28;20375;-61
2021/12/27 04:22:18;;;;;;;;;;;14.80;35.20;;;;;;5093211;28;20282;-61
2021/12/27 04:24:44;;;;;;;;;;;14.80;35.20;;;;;;5093545;28;19908;-61
2021/12/27 04:27:09;;;;;;;;;;;14.80;35.30;;;;;;5093580;28;20344;-61
2021/12/27 04:29:34;;;;;;;;;;;14.80;35.30;;;;;;5093207;28;19931;-61
2021/12/27 04:32:00;;;;;;;;;;;14.80;35.20;;;;;;5093469;28;19912;-62
2021/12/27 04:34:25;;;;;;;;;;;14.80;35.30;;;;;;5093281;28;20286;-61
2021/12/27 04:36:51;;;;;;;;;;;14.80;35.30;;;;;;5093482;28;19908;-61
2021/12/27 04:39:16;;;;;;;;;;;14.80;35.40;;;;;;5093162;28;20448;-62
2021/12/27 04:41:42;;;;;;;;;;;14.80;35.40;;;;;;5093085;28;19922;-63
2021/12/27 04:44:08;;;;;;;;;;;14.80;35.30;;;;;;5093171;28;19951;-61
2021/12/27 04:46:33;;;;;;;;;;;14.80;35.40;;;;;;5092981;28;19969;-62
2021/12/27 04:48:58;;;;;;;;;;;14.80;35.40;;;;;;5093339;28;20267;-61
2021/12/27 04:51:24;;;;;;;;;;;14.80;35.30;;;;;;5093156;28;19954;-62
2021/12/27 04:53:50;;;;;;;;;;;14.80;35.40;;;;;;5074937;28;20340;-61
2021/12/27 04:56:16;;;;;;;;;;;14.80;35.40;;;;;;5093022;28;19909;-61
2021/12/27 04:58:45;;;;;;;;;;;14.80;35.40;;;;;;5092749;28;20440;-61
2021/12/27 05:01:11;;;;;;;;;;;14.80;35.50;;;;;;5095854;28;20410;-61
2021/12/27 05:03:37;;;;;;;;;;;14.80;35.40;;;;;;5096660;28;19916;-61
2021/12/27 05:06:02;;;;;;;;;;;14.80;35.40;;;;;;5096505;28;19908;-61
2021/12/27 05:08:28;;;;;;;;;;;14.80;35.50;;;;;;5078267;28;20256;-61
2021/12/27 05:10:53;;;;;;;;;;;14.80;35.50;;;;;;5096734;28;20374;-62
2021/12/27 05:13:19;;;;;;;;;;;14.80;35.50;;;;;;5096401;28;19998;-62
2021/12/27 05:15:44;;;;;;;;;;;14.80;35.50;;;;;;5096436;28;19917;-62
2021/12/27 05:18:10;;;;;;;;;;;14.80;35.50;;;;;;5096448;28;19912;-62
2021/12/27 05:20:35;;;;;;;;;;;14.80;35.50;;;;;;5096109;28;19917;-62
2021/12/27 05:23:01;;;;;;;;;;;14.90;35.50;;;;;;5096092;28;20322;-62
2021/12/27 05:25:26;;;;;;;;;;;14.90;35.50;;;;;;5077882;28;20435;-62
2021/12/27 05:27:52;;;;;;;;;;;14.90;35.50;;;;;;5095976;28;19962;-62
2021/12/27 05:30:18;;;;;;;;;;;14.90;35.50;;;;;;5096298;28;20284;-62
2021/12/27 05:32:44;;;;;;;;;;;14.90;35.50;;;;;;5096030;28;20376;-62
2021/12/27 05:35:10;;;;;;;;;;;14.90;35.50;;;;;;5078000;28;19908;-61
2021/12/27 05:37:37;;;;;;;;;;;14.90;35.50;;;;;;5077802;28;19915;-62
2021/12/27 05:40:04;;;;;;;;;;;15.00;35.50;;;;;;5095950;28;19909;-62
2021/12/27 05:42:34;;;;;;;;;;;15.00;35.50;;;;;;5096010;28;19985;-62
2021/12/27 05:45:00;;;;;;;;;;;15.00;35.50;;;;;;5095688;28;19915;-62
2021/12/27 05:47:25;;;;;;;;;;;15.00;35.50;;;;;;5095921;28;20249;-62
2021/12/27 05:49:51;;;;;;;;;;;15.00;35.60;;;;;;5095778;28;19915;-62
2021/12/27 05:52:16;;;;;;;;;;;15.00;35.60;;;;;;5095791;28;20012;-62
2021/12/27 05:54:42;;;;;;;;;;;15.00;35.60;;;;;;5095496;28;19954;-62
2021/12/27 05:57:07;;;;;;;;;;;15.00;35.60;;;;;;5095337;28;19927;-62
2021/12/27 05:59:33;;;;;;;;;;;15.00;35.60;;;;;;5095395;28;19961;-62
2021/12/27 06:01:58;;;;;;;;;;;15.00;35.70;;;;;;5095427;28;20023;-61
2021/12/27 06:04:24;;;;;;;;;;;15.00;35.70;;;;;;5095380;28;20375;-62
2021/12/27 06:06:49;;;;;;;;;;;15.00;35.70;;;;;;5095310;28;19959;-62
2021/12/27 06:09:15;;;;;;;;;;;15.00;35.70;;;;;;5077479;28;19908;-61
2021/12/27 06:11:40;;;;;;;;;;;15.00;35.70;;;;;;5094153;28;20424;-62
2021/12/27 06:14:06;;;;;;;;;;;15.00;35.70;;;;;;5095171;28;20287;-62
2021/12/27 06:16:31;;;;;;;;;;;15.00;35.80;;;;;;5095363;28;19916;-62
2021/12/27 06:18:56;;;;;;;;;;;15.00;35.70;;;;;;5095317;28;20351;-62
2021/12/27 06:21:22;;;;;;;;;;;14.90;35.80;;;;;;5076835;28;19909;-62
2021/12/27 06:23:48;;;;;;;;;;;14.90;35.80;;;;;;5095027;28;20008;-61
2021/12/27 06:26:13;;;;;;;;;;;14.90;35.80;;;;;;5095224;28;20336;-62
2021/12/27 06:28:38;;;;;;;;;;;15.00;35.90;;;;;;5094936;28;19915;-61
2021/12/27 06:31:05;;;;;;;;;;;15.00;35.80;;;;;;5095026;28;19940;-61
2021/12/27 06:33:31;;;;;;;;;;;14.90;35.80;;;;;;5094806;28;19908;-62
2021/12/27 06:35:56;;;;;;;;;;;14.90;35.80;;;;;;5094826;28;19961;-62
2021/12/27 06:38:22;;;;;;;;;;;14.90;35.80;;;;;;5094999;28;19908;-62
2021/12/27 06:40:48;;;;;;;;;;;14.90;35.80;;;;;;5094935;28;19908;-62
2021/12/27 06:43:13;;;;;;;;;;;14.90;35.90;;;;;;5076155;28;20355;-61
2021/12/27 06:45:39;;;;;;;;;;;14.90;35.80;;;;;;5094753;28;20313;-62
2021/12/27 06:48:04;;;;;;;;;;;14.90;35.90;;;;;;5094589;28;19912;-61
2021/12/27 06:50:30;;;;;;;;;;;14.90;35.90;;;;;;5094404;28;20253;-62
2021/12/27 06:52:55;;;;;;;;;;;15.00;35.90;;;;;;5094693;28;19908;-61
2021/12/27 06:55:21;;;;;;;;;;;14.90;35.90;;;;;;5094792;28;20339;-61
2021/12/27 06:57:46;;;;;;;;;;;15.00;35.90;;;;;;5094250;28;20299;-62
2021/12/27 07:00:14;;;;;;;;;;;14.90;35.90;;;;;;5094365;28;19915;-61
2021/12/27 07:02:39;;;;;;;;;;;14.90;36.00;;;;;;5094107;28;20322;-61
2021/12/27 07:05:05;;;;;;;;;;;14.90;35.90;;;;;;5094212;28;20363;-62
2021/12/27 07:07:31;;;;;;;;;;;15.00;36.00;;;;;;5094264;28;20007;-61
2021/12/27 07:09:56;;;;;;;;;;;15.00;36.00;;;;;;5075975;28;19951;-61
2021/12/27 07:12:22;;;;;;;;;;;15.00;36.00;;;;;;5094001;28;19915;-61
2021/12/27 07:14:48;;;;;;;;;;;14.90;36.00;;;;;;5094088;28;19908;-61
2021/12/27 07:17:14;;;;;;;;;;;14.90;36.00;;;;;;5093930;28;19977;-61
2021/12/27 07:19:39;;;;;;;;;;;14.90;36.00;;;;;;5093907;28;20371;-61
2021/12/27 07:22:05;;;;;;;;;;;15.00;36.00;;;;;;5093948;28;19916;-61
2021/12/27 07:24:30;;;;;;;;;;;15.00;36.00;;;;;;5093758;28;19912;-62
2021/12/27 07:26:56;;;;;;;;;;;15.00;36.10;;;;;;5093889;28;19908;-62
2021/12/27 07:29:21;;;;;;;;;;;15.00;36.10;;;;;;5093849;28;19915;-61
2021/12/27 07:31:47;;;;;;;;;;;15.00;36.10;;;;;;5093782;28;19915;-62
2021/12/27 07:34:13;;;;;;;;;;;15.00;36.10;;;;;;5094142;28;19916;-61
2021/12/27 07:36:38;;;;;;;;;;;14.90;36.10;;;;;;5093727;28;20344;-62
2021/12/27 07:39:04;;;;;;;;;;;15.00;36.10;;;;;;5093702;28;19908;-61
2021/12/27 07:41:30;;;;;;;;;;;15.00;36.10;;;;;;5093752;28;20014;-62
2021/12/27 07:43:56;;;;;;;;;;;15.00;36.10;;;;;;5093547;28;19966;-62
2021/12/27 07:46:22;;;;;;;;;;;15.00;36.20;;;;;;5093565;28;19912;-61
2021/12/27 07:48:47;;;;;;;;;;;15.00;36.20;;;;;;5093572;28;20348;-61
2021/12/27 07:51:12;;;;;;;;;;;15.00;36.20;;;;;;5093441;28;19908;-61
2021/12/27 07:53:38;;;;;;;;;;;15.00;36.20;;;;;;5093467;28;20424;-61
2021/12/27 07:56:06;;;;;;;;;;;15.00;36.20;;;;;;5093337;28;19908;-61
2021/12/27 07:58:31;;;;;;;;;;;15.00;36.20;;;;;;5093213;28;19924;-61
2021/12/27 08:00:57;;;;;;;;;;;15.00;36.20;;;;;;5093312;28;20011;-62
2021/12/27 08:03:22;;;;;;;;;;;15.00;36.20;;;;;;5075311;28;20387;-61
2021/12/27 08:05:48;;;;;;;;;;;15.00;36.20;;;;;;5093342;28;19939;-61
2021/12/27 08:08:14;;;;;;;;;;;15.00;36.20;;;;;;5093288;28;19909;-61
2021/12/27 08:10:39;;;;;;;;;;;15.00;36.20;;;;;;5093274;28;19952;-61
2021/12/27 08:13:06;;;;;;;;;;;15.00;36.20;;;;;;5093568;28;19916;-62
2021/12/27 08:15:32;;;;;;;;;;;15.00;36.30;;;;;;5093260;28;19912;-62
2021/12/27 08:17:57;;;;;;;;;;;15.00;36.30;;;;;;5093223;28;20010;-61
2021/12/27 08:20:22;;;;;;;;;;;15.00;36.30;;;;;;5093477;28;19909;-61
2021/12/27 08:22:49;;;;;;;;;;;15.00;36.30;;;;;;5093309;28;19916;-62
2021/12/27 08:25:15;;;;;;;;;;;15.00;36.30;;;;;;5093547;28;19908;-61
2021/12/27 08:27:42;;;;;;;;;;;15.00;36.30;;;;;;5075195;28;20014;-62
2021/12/27 08:30:08;;;;;;;;;;;15.00;36.30;;;;;;5093451;28;19970;-62
2021/12/27 08:32:36;;;;;;;;;;;15.00;36.30;;;;;;5075267;28;20378;-62
2021/12/27 08:35:01;;;;;;;;;;;15.00;36.40;;;;;;5094558;28;19966;-62
2021/12/27 08:37:30;;;;;;;;;;;15.00;36.40;;;;;;5097004;28;19963;-62
2021/12/27 08:39:57;;;;;;;;;;;15.00;36.30;;;;;;5078857;28;20393;-62
2021/12/27 08:42:22;;;;;;;;;;;15.00;36.40;;;;;;5097050;28;19939;-62
2021/12/27 08:44:48;;;;;;;;;;;15.00;36.40;;;;;;5096994;28;20363;-62
2021/12/27 08:47:15;;;;;;;;;;;15.00;36.40;;;;;;5096815;28;19908;-61
2021/12/27 08:49:41;;;;;;;;;;;15.00;36.50;;;;;;5097116;28;19993;-62
2021/12/27 08:52:06;;;;;;;;;;;15.00;36.40;;;;;;5096819;28;19908;-61
2021/12/27 08:54:32;;;;;;;;;;;15.00;36.50;;;;;;5096702;28;20260;-61
2021/12/27 08:56:57;;;;;;;;;;;15.00;36.40;;;;;;5096542;28;19920;-61
2021/12/27 08:59:23;;;;;;;;;;;15.00;36.50;;;;;;5096865;28;19908;-61
2021/12/27 09:01:48;;;;;;;;;;;15.00;36.50;;;;;;5096287;28;20019;-61
2021/12/27 09:04:14;;;;;;;;;;;15.00;36.50;;;;;;5096757;28;19962;-61
2021/12/27 09:06:39;;;;;;;;;;;15.00;36.50;;;;;;5096771;28;20348;-61
2021/12/27 09:09:05;;;;;;;;;;;15.00;36.50;;;;;;5097058;28;20374;-61
2021/12/27 09:11:31;;;;;;;;;;;15.00;36.50;;;;;;5096367;28;19919;-61
2021/12/27 09:13:56;;;;;;;;;;;15.00;36.40;;;;;;5096730;28;19987;-61
2021/12/27 09:16:22;;;;;;;;;;;15.00;36.60;;;;;;5096372;28;19916;-61
2021/12/27 09:18:47;;;;;;;;;;;15.10;36.50;;;;;;5096268;28;20413;-61
2021/12/27 09:21:13;;;;;;;;;;;15.10;36.50;;;;;;5096506;28;19954;-61
2021/12/27 09:23:38;;;;;;;;;;;15.10;36.50;;;;;;5077745;28;19924;-61
2021/12/27 09:26:04;;;;;;;;;;;15.10;36.50;;;;;;5095917;28;19909;-61
2021/12/27 09:28:29;;;;;;;;;;;15.10;36.60;;;;;;5096215;28;20003;-61
2021/12/27 09:30:55;;;;;;;;;;;15.10;36.60;;;;;;5096038;28;19915;-61
2021/12/27 09:33:21;;;;;;;;;;;15.10;36.60;;;;;;5096060;28;19914;-61
2021/12/27 09:35:46;;;;;;;;;;;15.10;36.60;;;;;;5095956;28;19953;-61
2021/12/27 09:38:12;;;;;;;;;;;15.10;36.70;;;;;;5095763;28;20405;-61
2021/12/27 09:40:37;;;;;;;;;;;15.10;36.70;;;;;;5096027;28;20421;-61
2021/12/27 09:43:03;;;;;;;;;;;15.10;36.60;;;;;;5095642;28;19916;-61
2021/12/27 09:45:29;;;;;;;;;;;15.10;36.60;;;;;;5095753;28;19939;-61
2021/12/27 09:47:55;;;;;;;;;;;15.10;36.70;;;;;;5077523;28;19951;-61
2021/12/27 09:50:23;;;;;;;;;;;15.10;36.70;;;;;;5077290;28;19908;-61
2021/12/27 09:52:48;;;;;;;;;;;15.10;36.70;;;;;;5095484;28;19987;-61
2021/12/27 09:55:14;;;;;;;;;;;15.10;36.70;;;;;;5095678;28;19914;-61
2021/12/27 09:57:40;;;;;;;;;;;15.10;36.70;;;;;;5095229;28;19920;-61
2021/12/27 10:00:07;;;;;;;;;;;15.10;36.70;;;;;;5095602;28;20023;-61
2021/12/27 10:02:35;;;;;;;;;;;15.10;36.70;;;;;;5095256;28;20007;-61
2021/12/27 10:05:01;;;;;;;;;;;15.10;36.80;;;;;;5095163;28;20051;-61
2021/12/27 10:07:28;;;;;;;;;;;15.10;36.70;;;;;;5095200;28;19912;-61
2021/12/27 10:09:55;;;;;;;;;;;15.10;36.70;;;;;;5095286;28;19908;-61
2021/12/27 10:12:22;;;;;;;;;;;15.10;36.80;;;;;;5076895;28;19969;-61
2021/12/27 10:14:53;;;;;;;;;;;15.10;36.70;;;;;;5095079;28;19915;-61
2021/12/27 10:17:18;;;;;;;;;;;15.10;36.80;;;;;;5095057;28;20351;-61
2021/12/27 10:19:44;;;;;;;;;;;15.10;36.80;;;;;;5094864;28;19908;-61
2021/12/27 10:22:11;;;;;;;;;;;15.10;36.90;;;;;;5095206;28;19922;-61
2021/12/27 10:24:36;;;;;;;;;;;15.10;36.90;;;;;;5095231;28;19908;-61
2021/12/27 10:27:02;;;;;;;;;;;15.10;36.80;;;;;;5076810;28;19915;-61
2021/12/27 10:29:32;;;;;;;;;;;15.10;36.80;;;;;;5076621;28;19908;-61
2021/12/27 10:32:11;;;;;;;;;;;15.20;36.80;;;;;;5094740;28;19909;-61
2021/12/27 10:34:46;;;;;;;;;;;15.20;36.90;;;;;;5094836;28;19909;-61
2021/12/27 10:37:17;;;;;;;;;;;15.20;36.90;;;;;;5094610;28;20279;-61
2021/12/27 10:39:49;;;;;;;;;;;15.20;36.90;;;;;;5094715;28;19908;-61
2021/12/27 10:42:20;;;;;;;;;;;15.20;36.90;;;;;;5094774;28;20271;-61
2021/12/27 10:44:46;;;;;;;;;;;15.20;36.90;;;;;;5094454;28;19908;-61
2021/12/27 10:47:23;;;;;;;;;;;15.20;36.90;;;;;;5094361;28;19908;-61
2021/12/27 10:49:49;;;;;;;;;;;15.20;36.90;;;;;;5094384;28;20374;-61
2021/12/27 10:52:15;;;;;;;;;;;15.20;36.90;;;;;;5094449;28;19914;-61
2021/12/27 10:54:41;;;;;;;;;;;15.20;36.90;;;;;;5094118;28;20278;-61
2021/12/27 10:57:06;;;;;;;;;;;15.20;36.90;;;;;;5093724;28;19927;-61
2021/12/27 10:59:32;;;;;;;;;;;15.20;37.00;;;;;;5094012;28;20340;-61
2021/12/27 11:02:07;;;;;;;;;;;15.20;37.00;;;;;;5094160;28;19916;-60
2021/12/27 11:04:33;;;;;;;;;;;15.20;37.00;;;;;;5094317;28;20002;-61
2021/12/27 11:06:59;;;;;;;;;;;15.20;37.00;;;;;;5094176;28;20343;-61
2021/12/27 11:09:25;;;;;;;;;;;15.20;37.00;;;;;;5076006;28;19908;-62
2021/12/27 11:11:51;;;;;;;;;;;15.20;37.10;;;;;;5093991;28;19912;-61
2021/12/27 11:14:17;;;;;;;;;;;15.20;37.00;;;;;;5093941;28;20252;-61
2021/12/27 11:16:42;;;;;;;;;;;15.20;37.00;;;;;;5093836;28;20170;-62
2021/12/27 11:19:08;;;;;;;;;;;15.20;37.10;;;;;;5093999;28;19908;-61
2021/12/27 11:21:36;;;;;;;;;;;15.20;37.10;;;;;;5094012;28;19962;-61
2021/12/27 11:24:02;;;;;;;;;;;15.20;37.10;;;;;;5093614;28;19915;-62
2021/12/27 11:26:29;;;;;;;;;;;15.20;37.10;;;;;;5093693;28;19948;-61
2021/12/27 11:29:13;;;;;;;;;;;15.20;37.10;;;;;;5075384;28;19912;-61
2021/12/27 11:31:39;;;;;;;;;;;15.20;37.10;;;;;;5093688;28;19966;-61
2021/12/27 11:34:06;;;;;;;;;;;15.20;37.20;;;;;;5075371;28;19948;-61
2021/12/27 11:36:33;;;;;;;;;;;15.20;37.20;;;;;;5093536;28;20328;-61
2021/12/27 11:39:00;;;;;;;;;;;15.20;37.20;;;;;;5093575;28;19908;-61
2021/12/27 11:41:25;;;;;;;;;;;15.20;37.20;;;;;;5075476;28;19946;-62
2021/12/27 11:43:53;;;;;;;;;;;15.20;37.20;;;;;;5093833;28;20393;-61
2021/12/27 11:46:22;;;;;;;;;;;15.30;37.20;;;;;;5093235;28;20394;-60
2021/12/27 11:48:49;;;;;;;;;;;15.20;37.10;;;;;;5075334;28;20272;-62
2021/12/27 11:51:17;;;;;;;;;;;15.30;37.20;;;;;;5093427;28;19908;-61
2021/12/27 11:53:44;;;;;;;;;;;15.30;37.20;;;;;;5093313;28;19915;-61
2021/12/27 11:56:11;;;;;;;;;;;15.20;37.30;;;;;;5093651;28;19908;-61
2021/12/27 11:58:38;;;;;;;;;;;15.30;37.30;;;;;;5093228;28;19935;-61
2021/12/27 12:01:05;;;;;;;;;;;15.30;37.30;;;;;;5093359;28;19915;-61
2021/12/27 12:03:41;;;;;;;;;;;15.30;37.30;;;;;;5093096;28;20471;-61
2021/12/27 12:06:07;;;;;;;;;;;15.30;37.30;;;;;;5093442;28;19908;-61
2021/12/27 12:08:38;;;;;;;;;;;15.30;37.30;;;;;;5093269;28;20252;-61
2021/12/27 12:11:11;;;;;;;;;;;15.30;37.40;;;;;;5096569;28;20371;-61
2021/12/27 12:13:37;;;;;;;;;;;15.30;37.40;;;;;;5097568;28;19908;-61
2021/12/27 12:16:02;;;;;;;;;;;15.30;37.30;;;;;;5097208;28;20382;-61
2021/12/27 12:18:28;;;;;;;;;;;15.30;37.40;;;;;;5097212;28;19915;-61
2021/12/27 12:20:54;;;;;;;;;;;15.30;37.40;;;;;;5097012;28;19908;-61
2021/12/27 12:23:20;;;;;;;;;;;15.30;37.40;;;;;;5097293;28;19961;-61
2021/12/27 12:25:45;;;;;;;;;;;15.30;37.40;;;;;;5097304;28;19908;-62
2021/12/27 12:28:11;;;;;;;;;;;15.30;37.40;;;;;;5097165;28;19986;-61
2021/12/27 12:30:38;;;;;;;;;;;15.30;37.40;;;;;;5096949;28;19908;-61
2021/12/27 12:33:03;;;;;;;;;;;15.30;37.40;;;;;;5097000;28;19908;-62
2021/12/27 12:35:35;;;;;;;;;;;15.30;37.40;;;;;;5078909;28;20263;-61
2021/12/27 12:38:15;;;;;;;;;;;15.30;37.40;;;;;;5097164;28;19934;-61
2021/12/27 12:40:42;;;;;;;;;;;15.30;37.40;;;;;;5096716;28;19969;-61
2021/12/27 12:43:08;;;;;;;;;;;15.30;37.40;;;;;;5096813;28;19919;-61
2021/12/27 12:45:33;;;;;;;;;;;15.30;37.50;;;;;;5096883;28;19916;-61
2021/12/27 12:47:59;;;;;;;;;;;15.30;37.50;;;;;;5096915;28;19908;-61
2021/12/27 12:50:24;;;;;;;;;;;15.30;37.40;;;;;;5096737;28;19954;-61
2021/12/27 12:52:54;;;;;;;;;;;15.30;37.60;;;;;;5096798;28;19908;-61
2021/12/27 12:55:21;;;;;;;;;;;15.40;37.40;;;;;;5096721;28;19969;-61
2021/12/27 12:57:50;;;;;;;;;;;15.30;37.50;;;;;;5096591;28;19920;-61
2021/12/27 13:00:26;;;;;;;;;;;15.30;37.50;;;;;;5096447;28;19962;-61
2021/12/27 13:02:52;;;;;;;;;;;15.30;37.50;;;;;;5096602;28;19917;-61
2021/12/27 13:05:18;;;;;;;;;;;15.30;37.60;;;;;;5096560;28;20343;-61
2021/12/27 13:07:49;;;;;;;;;;;15.30;37.50;;;;;;5078207;28;20386;-61
2021/12/27 13:10:22;;;;;;;;;;;15.30;37.60;;;;;;5096387;28;19995;-61
2021/12/27 13:12:47;;;;;;;;;;;15.30;37.60;;;;;;5096526;28;19908;-61
2021/12/27 13:15:15;;;;;;;;;;;15.40;37.50;;;;;;5096594;28;20364;-61
2021/12/27 13:17:41;;;;;;;;;;;15.30;37.60;;;;;;5096182;28;19999;-61
2021/12/27 13:20:14;;;;;;;;;;;15.30;37.60;;;;;;5095754;28;19951;-61
2021/12/27 13:22:54;;;;;;;;;;;15.30;37.70;;;;;;5096195;28;19916;-61
2021/12/27 13:25:32;;;;;;;;;;;15.30;37.60;;;;;;5096029;28;19931;-61
2021/12/27 13:28:05;;;;;;;;;;;15.30;37.60;;;;;;5077856;28;19912;-61
2021/12/27 13:30:30;;;;;;;;;;;15.30;37.70;;;;;;5095875;28;19916;-61
2021/12/27 13:32:56;;;;;;;;;;;15.40;37.70;;;;;;5096025;28;19908;-61
2021/12/27 13:35:21;;;;;;;;;;;15.30;37.70;;;;;;5095785;28;20178;-61
2021/12/27 13:37:47;;;;;;;;;;;15.30;37.70;;;;;;5095833;28;19953;-61
2021/12/27 13:40:17;;;;;;;;;;;15.30;37.80;;;;;;5077468;28;20279;-61
2021/12/27 13:42:43;;;;;;;;;;;15.30;37.80;;;;;;5095518;28;19961;-61
2021/12/27 13:45:11;;;;;;;;;;;15.30;37.80;;;;;;5095675;28;19917;-61
2021/12/27 13:47:36;;;;;;;;;;;15.30;37.80;;;;;;5095531;28;19917;-61
2021/12/27 13:50:03;;;;;;;;;;;15.30;37.80;;;;;;5096273;28;20264;-61
2021/12/27 13:52:30;;;;;;;;;;;15.30;37.70;;;;;;5095382;28;19908;-61
2021/12/27 13:54:56;;;;;;;;;;;15.40;37.80;;;;;;5095554;28;20279;-61
2021/12/27 13:57:33;;;;;;;;;;;15.30;37.80;;;;;;5095268;28;19930;-61
2021/12/27 13:59:59;;;;;;;;;;;15.40;37.80;;;;;;5095323;28;20374;-61
2021/12/27 14:02:36;;;;;;;;;;;15.30;37.80;;;;;;5095746;28;19922;-61
2021/12/27 14:05:01;;;;;;;;;;;15.40;37.80;;;;;;5095601;28;19961;-61
2021/12/27 14:07:27;;;;;;;;;;;15.40;37.90;;;;;;5095310;28;19908;-61
2021/12/27 14:09:52;;;;;;;;;;;15.40;37.90;;;;;;5095215;28;20280;-61
2021/12/27 14:12:30;;;;;;;;;;;15.40;37.80;;;;;;5095381;28;19967;-61
2021/12/27 14:15:01;;;;;;;;;;;15.30;37.90;;;;;;5095075;28;19909;-61
2021/12/27 14:17:28;;;;;;;;;;;15.30;37.90;;;;;;5095096;28;19908;-61